Time,TemperatureF,DewpointF,PressureIn,WindDirection,WindDirectionDegrees,WindSpeedMPH,WindSpeedGustMPH,Humidity,HourlyPrecipIn,Conditions,Clouds,dailyrainin,SoftwareType,DateUTC
2013-06-27 00:03:00,77.1,67.0,29.86,SSW,202,1.0,5.0,71,0.00,,,-99.99,WeatherLink 5.7,2013-06-27 04:03:00,
2013-06-27 00:13:00,76.9,66.8,29.86,South,180,1.0,5.0,71,0.00,,,-99.99,WeatherLink 5.7,2013-06-27 04:13:00,
2013-06-27 00:24:00,76.5,66.8,29.86,South,180,1.0,5.0,72,0.00,,,-99.99,WeatherLink 5.7,2013-06-27 04:24:00,
2013-06-27 00:33:00,76.3,67.4,29.86,South,180,0.0,1.0,74,0.00,,,-99.99,WeatherLink 5.7,2013-06-27 04:33:00,
2013-06-27 00:43:00,76.3,67.8,29.86,South,180,0.0,3.0,75,0.00,,,-99.99,WeatherLink 5.7,2013-06-27 04:43:00,
2013-06-27 00:53:00,76.2,68.1,29.84,South,180,1.0,4.0,76,0.00,,,-99.99,WeatherLink 5.7,2013-06-27 04:53:00,
2013-06-27 01:03:00,76.1,68.4,29.84,South,180,0.0,2.0,77,0.00,,,-99.99,WeatherLink 5.7,2013-06-27 05:03:00,
2013-06-27 01:13:00,75.9,68.5,29.83,South,180,0.0,2.0,78,0.00,,,-99.99,WeatherLink 5.7,2013-06-27 05:13:00,
2013-06-27 01:23:00,75.9,68.9,29.83,South,180,0.0,2.0,79,0.00,,,-99.99,WeatherLink 5.7,2013-06-27 05:23:00,
2013-06-27 01:33:00,75.7,69.1,29.82,South,180,1.0,4.0,80,0.00,,,-99.99,WeatherLink 5.7,2013-06-27 05:33:00,
2013-06-27 01:43:00,75.6,69.0,29.82,South,180,0.0,1.0,80,0.00,,,-99.99,WeatherLink 5.7,2013-06-27 05:43:00,
2013-06-27 01:53:00,75.4,69.2,29.82,South,180,0.0,1.0,81,0.00,,,-99.99,WeatherLink 5.7,2013-06-27 05:53:00,
2013-06-27 02:03:00,75.4,69.5,29.82,South,180,0.0,3.0,82,0.00,,,-99.99,WeatherLink 5.7,2013-06-27 06:03:00,
2013-06-27 02:13:00,75.3,69.8,29.82,South,180,2.0,4.0,83,0.00,,,-99.99,WeatherLink 5.7,2013-06-27 06:13:00,
2013-06-27 02:23:00,75.1,69.9,29.83,South,180,1.0,4.0,84,0.00,,,-99.99,WeatherLink 5.7,2013-06-27 06:23:00,
2013-06-27 02:34:00,74.9,70.1,29.82,South,180,0.0,2.0,85,0.00,,,-99.99,WeatherLink 5.7,2013-06-27 06:34:00,
2013-06-27 02:44:00,74.6,69.8,29.82,South,180,0.0,3.0,85,0.00,,,-99.99,WeatherLink 5.7,2013-06-27 06:44:00,
2013-06-27 02:56:00,74.5,69.7,29.82,South,180,1.0,4.0,85,0.00,,,-99.99,WeatherLink 5.7,2013-06-27 06:56:00,
2013-06-27 03:04:00,74.3,69.8,29.82,SSW,202,1.0,4.0,86,0.00,,,-99.99,WeatherLink 5.7,2013-06-27 07:04:00,
2013-06-27 03:14:00,74.3,69.8,29.82,SSW,202,1.0,3.0,86,0.00,,,-99.99,WeatherLink 5.7,2013-06-27 07:14:00,
2013-06-27 03:23:00,74.2,69.7,29.81,SSW,202,2.0,4.0,86,0.00,,,-99.99,WeatherLink 5.7,2013-06-27 07:23:00,
2013-06-27 03:33:00,74.2,70.1,29.81,SSW,202,2.0,4.0,87,0.00,,,-99.99,WeatherLink 5.7,2013-06-27 07:33:00,
2013-06-27 03:43:00,74.1,69.6,29.81,SSW,202,2.0,4.0,86,0.00,,,-99.99,WeatherLink 5.7,2013-06-27 07:43:00,
2013-06-27 03:53:00,74.1,70.0,29.81,SSW,202,1.0,3.0,87,0.00,,,-99.99,WeatherLink 5.7,2013-06-27 07:53:00,
2013-06-27 04:03:00,73.9,69.8,29.81,SSW,202,1.0,3.0,87,0.00,,,-99.99,WeatherLink 5.7,2013-06-27 08:03:00,
2013-06-27 04:13:00,73.6,69.8,29.81,SSW,202,1.0,4.0,88,0.00,,,-99.99,WeatherLink 5.7,2013-06-27 08:13:00,
2013-06-27 04:23:00,73.6,70.2,29.81,SSW,202,0.0,2.0,89,0.00,,,-99.99,WeatherLink 5.7,2013-06-27 08:23:00,
2013-06-27 04:33:00,73.6,70.2,29.81,SSW,202,1.0,4.0,89,0.00,,,-99.99,WeatherLink 5.7,2013-06-27 08:33:00,
2013-06-27 04:44:00,73.6,70.2,29.82,SSW,202,1.0,2.0,89,0.00,,,-99.99,WeatherLink 5.7,2013-06-27 08:44:00,
2013-06-27 04:53:00,73.6,70.2,29.82,SSW,202,0.0,2.0,89,0.00,,,-99.99,WeatherLink 5.7,2013-06-27 08:53:00,
2013-06-27 05:03:00,73.6,70.2,29.82,North,-999,0.0,1.0,89,0.00,,,-99.99,WeatherLink 5.7,2013-06-27 09:03:00,
2013-06-27 05:13:00,73.5,70.1,29.83,SSW,202,0.0,1.0,89,0.00,,,-99.99,WeatherLink 5.7,2013-06-27 09:13:00,
2013-06-27 05:24:00,73.4,70.0,29.83,SSW,202,0.0,1.0,89,0.00,,,-99.99,WeatherLink 5.7,2013-06-27 09:24:00,
2013-06-27 05:33:00,73.4,70.0,29.83,North,-999,0.0,0.0,89,0.00,,,-99.99,WeatherLink 5.7,2013-06-27 09:33:00,
2013-06-27 05:43:00,73.4,70.0,29.83,SSW,202,0.0,2.0,89,0.00,,,-99.99,WeatherLink 5.7,2013-06-27 09:43:00,
2013-06-27 05:53:00,73.5,69.7,29.83,SSW,202,0.0,2.0,88,0.00,,,-99.99,WeatherLink 5.7,2013-06-27 09:53:00,
2013-06-27 06:03:00,73.4,69.3,29.83,North,-999,0.0,0.0,87,0.00,,,-99.99,WeatherLink 5.7,2013-06-27 10:03:00,
2013-06-27 06:13:00,73.4,69.3,29.83,SSW,202,1.0,2.0,87,0.00,,,-99.99,WeatherLink 5.7,2013-06-27 10:13:00,
2013-06-27 06:23:00,73.3,69.2,29.83,SSW,202,0.0,2.0,87,0.00,,,-99.99,WeatherLink 5.7,2013-06-27 10:23:00,
2013-06-27 06:33:00,73.5,69.1,29.83,SSW,202,1.0,2.0,86,0.00,,,-99.99,WeatherLink 5.7,2013-06-27 10:33:00,
2013-06-27 06:43:00,73.6,69.2,29.83,SSW,202,0.0,2.0,86,0.00,,,-99.99,WeatherLink 5.7,2013-06-27 10:43:00,
2013-06-27 06:53:00,73.7,68.9,29.83,SSW,202,0.0,3.0,85,0.00,,,-99.99,WeatherLink 5.7,2013-06-27 10:53:00,
2013-06-27 07:03:00,73.7,68.2,29.83,SSW,202,0.0,2.0,83,0.00,,,-99.99,WeatherLink 5.7,2013-06-27 11:03:00,
2013-06-27 07:13:00,73.9,68.1,29.84,SSW,202,1.0,5.0,82,0.00,,,-99.99,WeatherLink 5.7,2013-06-27 11:13:00,
2013-06-27 07:24:00,74.1,67.5,29.84,SSW,202,1.0,4.0,80,0.00,,,-99.99,WeatherLink 5.7,2013-06-27 11:24:00,
2013-06-27 07:33:00,74.1,67.2,29.83,SSW,202,0.0,3.0,79,0.00,,,-99.99,WeatherLink 5.7,2013-06-27 11:33:00,
2013-06-27 07:43:00,74.3,67.4,29.83,SSW,202,0.0,2.0,79,0.00,,,-99.99,WeatherLink 5.7,2013-06-27 11:43:00,
2013-06-27 07:53:00,74.8,67.8,29.83,SSW,202,0.0,2.0,79,0.00,,,-99.99,WeatherLink 5.7,2013-06-27 11:53:00,
2013-06-27 08:03:00,75.8,67.7,29.83,SSW,202,0.0,3.0,76,0.00,,,-99.99,WeatherLink 5.7,2013-06-27 12:03:00,
2013-06-27 08:13:00,76.9,68.0,29.83,SSW,202,0.0,1.0,74,0.00,,,-99.99,WeatherLink 5.7,2013-06-27 12:13:00,
2013-06-27 08:23:00,77.5,67.8,29.82,SSW,202,0.0,2.0,72,0.00,,,-99.99,WeatherLink 5.7,2013-06-27 12:23:00,
2013-06-27 08:33:00,77.7,68.4,29.82,SSW,202,0.0,2.0,73,0.00,,,-99.99,WeatherLink 5.7,2013-06-27 12:33:00,
2013-06-27 08:43:00,78.2,68.0,29.82,SSW,202,0.0,3.0,71,0.00,,,-99.99,WeatherLink 5.7,2013-06-27 12:43:00,
2013-06-27 08:53:00,78.4,67.4,29.82,SSW,202,0.0,3.0,69,0.00,,,-99.99,WeatherLink 5.7,2013-06-27 12:53:00,
2013-06-27 09:03:00,79.0,67.5,29.82,SSW,202,1.0,4.0,68,0.00,,,-99.99,WeatherLink 5.7,2013-06-27 13:03:00,
2013-06-27 09:13:00,79.7,67.3,29.81,South,180,0.0,2.0,66,0.00,,,-99.99,WeatherLink 5.7,2013-06-27 13:13:00,
2013-06-27 09:23:00,80.6,67.7,29.81,South,180,1.0,3.0,65,0.00,,,-99.99,WeatherLink 5.7,2013-06-27 13:23:00,
2013-06-27 09:33:00,80.7,66.0,29.81,SSE,157,1.0,5.0,61,0.00,,,-99.99,WeatherLink 5.7,2013-06-27 13:33:00,
2013-06-27 09:43:00,80.6,66.8,29.81,SSE,157,1.0,5.0,63,0.00,,,-99.99,WeatherLink 5.7,2013-06-27 13:43:00,
2013-06-27 09:53:00,80.6,66.8,29.81,SE,135,1.0,5.0,63,0.00,,,-99.99,WeatherLink 5.7,2013-06-27 13:53:00,
2013-06-27 10:03:00,80.6,65.9,29.81,SE,135,2.0,8.0,61,0.00,,,-99.99,WeatherLink 5.7,2013-06-27 14:03:00,
2013-06-27 10:13:00,81.1,65.9,29.81,SE,135,3.0,8.0,60,0.00,,,-99.99,WeatherLink 5.7,2013-06-27 14:13:00,
2013-06-27 10:23:00,81.7,66.5,29.80,SE,135,2.0,6.0,60,0.00,,,-99.99,WeatherLink 5.7,2013-06-27 14:23:00,
2013-06-27 10:34:00,81.9,66.2,29.80,East,90,3.0,7.0,59,0.00,,,-99.99,WeatherLink 5.7,2013-06-27 14:34:00,
2013-06-27 10:43:00,81.6,65.4,29.80,ENE,67,4.0,7.0,58,0.00,,,-99.99,WeatherLink 5.7,2013-06-27 14:43:00,
2013-06-27 10:53:00,81.9,65.7,29.80,East,90,3.0,6.0,58,0.00,,,-99.99,WeatherLink 5.7,2013-06-27 14:53:00,
2013-06-27 11:03:00,82.3,64.5,29.80,East,90,3.0,7.0,55,0.00,,,-99.99,WeatherLink 5.7,2013-06-27 15:03:00,
2013-06-27 11:13:00,83.2,65.4,29.79,ESE,112,3.0,8.0,55,0.00,,,-99.99,WeatherLink 5.7,2013-06-27 15:13:00,
2013-06-27 11:23:00,83.5,64.6,29.79,SSE,157,1.0,7.0,53,0.00,,,-99.99,WeatherLink 5.7,2013-06-27 15:23:00,
2013-06-27 11:33:00,83.8,64.8,29.79,ESE,112,4.0,9.0,53,0.00,,,-99.99,WeatherLink 5.7,2013-06-27 15:33:00,
2013-06-27 11:43:00,83.2,64.8,29.79,ESE,112,3.0,7.0,54,0.00,,,-99.99,WeatherLink 5.7,2013-06-27 15:43:00,
2013-06-27 11:53:00,82.9,65.6,29.79,ESE,112,3.0,6.0,56,0.00,,,-99.99,WeatherLink 5.7,2013-06-27 15:53:00,
2013-06-27 12:03:00,83.2,66.4,29.79,SE,135,4.0,8.0,57,0.00,,,-99.99,WeatherLink 5.7,2013-06-27 16:03:00,
2013-06-27 12:13:00,83.4,67.1,29.79,ESE,112,4.0,10.0,58,0.00,,,-99.99,WeatherLink 5.7,2013-06-27 16:13:00,
2013-06-27 12:23:00,83.2,66.4,29.78,ESE,112,3.0,9.0,57,0.00,,,-99.99,WeatherLink 5.7,2013-06-27 16:23:00,
2013-06-27 12:33:00,83.3,66.0,29.78,ESE,112,4.0,10.0,56,0.00,,,-99.99,WeatherLink 5.7,2013-06-27 16:33:00,
2013-06-27 12:43:00,83.6,65.7,29.78,ESE,112,4.0,10.0,55,0.00,,,-99.99,WeatherLink 5.7,2013-06-27 16:43:00,
2013-06-27 12:53:00,83.9,64.4,29.77,ESE,112,4.0,11.0,52,0.00,,,-99.99,WeatherLink 5.7,2013-06-27 16:53:00,
2013-06-27 13:03:00,84.5,64.9,29.78,ESE,112,4.0,9.0,52,0.00,,,-99.99,WeatherLink 5.7,2013-06-27 17:03:00,
2013-06-27 13:13:00,84.5,65.5,29.77,SSE,157,3.0,8.0,53,0.00,,,-99.99,WeatherLink 5.7,2013-06-27 17:13:00,
2013-06-27 13:23:00,84.6,65.0,29.77,SE,135,4.0,9.0,52,0.00,,,-99.99,WeatherLink 5.7,2013-06-27 17:23:00,
2013-06-27 13:33:00,84.9,65.3,29.76,ESE,112,5.0,12.0,52,0.00,,,-99.99,WeatherLink 5.7,2013-06-27 17:33:00,
2013-06-27 13:43:00,85.1,64.9,29.76,ESE,112,4.0,12.0,51,0.00,,,-99.99,WeatherLink 5.7,2013-06-27 17:43:00,
2013-06-27 13:53:00,85.1,64.9,29.76,ESE,112,6.0,10.0,51,0.00,,,-99.99,WeatherLink 5.7,2013-06-27 17:53:00,
2013-06-27 14:03:00,84.7,65.1,29.76,ESE,112,2.0,9.0,52,0.00,,,-99.99,WeatherLink 5.7,2013-06-27 18:03:00,
2013-06-27 14:13:00,84.7,64.6,29.75,ESE,112,4.0,12.0,51,0.00,,,-99.99,WeatherLink 5.7,2013-06-27 18:13:00,
2013-06-27 14:23:00,84.9,65.3,29.75,ESE,112,5.0,11.0,52,0.00,,,-99.99,WeatherLink 5.7,2013-06-27 18:23:00,
2013-06-27 14:33:00,84.8,65.2,29.75,ESE,112,5.0,13.0,52,0.00,,,-99.99,WeatherLink 5.7,2013-06-27 18:33:00,
2013-06-27 14:43:00,84.5,66.6,29.75,ESE,112,6.0,14.0,55,0.00,,,-99.99,WeatherLink 5.7,2013-06-27 18:43:00,
2013-06-27 14:53:00,83.8,65.4,29.75,ESE,112,6.0,13.0,54,0.00,,,-99.99,WeatherLink 5.7,2013-06-27 18:53:00,
2013-06-27 15:03:00,83.8,66.9,29.75,ESE,112,6.0,14.0,57,0.00,,,-99.99,WeatherLink 5.7,2013-06-27 19:03:00,
2013-06-27 15:13:00,83.3,66.5,29.75,SE,135,5.0,11.0,57,0.00,,,-99.99,WeatherLink 5.7,2013-06-27 19:13:00,
2013-06-27 15:23:00,83.8,66.4,29.75,SE,135,5.0,12.0,56,0.00,,,-99.99,WeatherLink 5.7,2013-06-27 19:23:00,
2013-06-27 15:33:00,83.7,66.3,29.74,ESE,112,6.0,14.0,56,0.00,,,-99.99,WeatherLink 5.7,2013-06-27 19:33:00,
2013-06-27 15:43:00,83.7,66.3,29.74,ESE,112,7.0,14.0,56,0.00,,,-99.99,WeatherLink 5.7,2013-06-27 19:43:00,
2013-06-27 15:53:00,83.3,66.5,29.74,ESE,112,8.0,14.0,57,0.00,,,-99.99,WeatherLink 5.7,2013-06-27 19:53:00,
2013-06-27 16:03:00,83.3,67.0,29.73,ESE,112,7.0,13.0,58,0.00,,,-99.99,WeatherLink 5.7,2013-06-27 20:03:00,
2013-06-27 16:13:00,83.5,67.2,29.73,ESE,112,6.0,13.0,58,0.00,,,-99.99,WeatherLink 5.7,2013-06-27 20:13:00,
2013-06-27 16:23:00,83.7,67.8,29.73,SE,135,4.0,13.0,59,0.00,,,-99.99,WeatherLink 5.7,2013-06-27 20:23:00,
2013-06-27 16:34:00,83.6,68.2,29.72,ESE,112,7.0,14.0,60,0.00,,,-99.99,WeatherLink 5.7,2013-06-27 20:34:00,
2013-06-27 16:43:00,83.3,67.0,29.71,ESE,112,6.0,13.0,58,0.00,,,-99.99,WeatherLink 5.7,2013-06-27 20:43:00,
2013-06-27 16:53:00,83.2,67.4,29.71,ESE,112,7.0,16.0,59,0.00,,,-99.99,WeatherLink 5.7,2013-06-27 20:53:00,
2013-06-27 17:03:00,82.9,67.1,29.70,ESE,112,8.0,15.0,59,0.00,,,-99.99,WeatherLink 5.7,2013-06-27 21:03:00,
2013-06-27 17:13:00,82.4,66.6,29.70,ESE,112,9.0,17.0,59,0.00,,,-99.99,WeatherLink 5.7,2013-06-27 21:13:00,
2013-06-27 17:23:00,82.2,66.4,29.69,ESE,112,6.0,14.0,59,0.00,,,-99.99,WeatherLink 5.7,2013-06-27 21:23:00,
2013-06-27 17:33:00,82.0,66.3,29.69,ESE,112,7.0,16.0,59,0.00,,,-99.99,WeatherLink 5.7,2013-06-27 21:33:00,
2013-06-27 17:43:00,81.4,66.2,29.69,ESE,112,8.0,14.0,60,0.00,,,-99.99,WeatherLink 5.7,2013-06-27 21:43:00,
2013-06-27 17:53:00,80.8,66.6,29.69,ESE,112,8.0,14.0,62,0.00,,,-99.99,WeatherLink 5.7,2013-06-27 21:53:00,
2013-06-27 18:03:00,79.7,66.0,29.69,ESE,112,8.0,15.0,63,0.00,,,-99.99,WeatherLink 5.7,2013-06-27 22:03:00,
2013-06-27 18:13:00,79.3,66.1,29.69,ESE,112,7.0,13.0,64,0.00,,,-99.99,WeatherLink 5.7,2013-06-27 22:13:00,
2013-06-27 18:23:00,79.0,66.7,29.68,ESE,112,6.0,11.0,66,0.00,,,-99.99,WeatherLink 5.7,2013-06-27 22:23:00,
2013-06-27 18:33:00,78.0,67.0,29.70,ESE,112,7.0,14.0,69,0.00,,,-99.99,WeatherLink 5.7,2013-06-27 22:33:00,
2013-06-27 18:43:00,77.4,67.7,29.69,East,90,6.0,12.0,72,0.00,,,-99.99,WeatherLink 5.7,2013-06-27 22:43:00,
2013-06-27 18:53:00,76.8,67.5,29.69,ESE,112,5.0,11.0,73,0.00,,,-99.99,WeatherLink 5.7,2013-06-27 22:53:00,
2013-06-27 19:00:00,76.5,67.6,29.69,ESE,112,5.0,13.0,74,0.00,,,-99.99,WeatherLink 5.7,2013-06-27 23:00:00,
2013-06-27 19:13:00,76.1,68.0,29.68,ESE,112,8.0,13.0,76,0.00,,,-99.99,WeatherLink 5.7,2013-06-27 23:13:00,
2013-06-27 19:24:00,75.8,68.4,29.69,ESE,112,7.0,13.0,78,0.00,,,-99.99,WeatherLink 5.7,2013-06-27 23:24:00,
2013-06-27 19:34:00,75.2,68.2,29.67,ESE,112,7.0,13.0,79,0.00,,,-99.99,WeatherLink 5.7,2013-06-27 23:34:00,
2013-06-27 19:43:00,74.8,68.2,29.68,ESE,112,7.0,13.0,80,0.00,,,-99.99,WeatherLink 5.7,2013-06-27 23:43:00,
2013-06-27 19:53:00,74.5,68.3,29.67,ESE,112,7.0,13.0,81,0.00,,,-99.99,WeatherLink 5.7,2013-06-27 23:53:00,
2013-06-27 20:03:00,74.3,68.1,29.66,ESE,112,6.0,12.0,81,0.00,,,-99.99,WeatherLink 5.7,2013-06-28 00:03:00,
2013-06-27 20:13:00,74.1,68.3,29.66,ESE,112,7.0,15.0,82,0.00,,,-99.99,WeatherLink 5.7,2013-06-28 00:13:00,
2013-06-27 20:23:00,74.1,68.3,29.66,ESE,112,7.0,16.0,82,0.00,,,-99.99,WeatherLink 5.7,2013-06-28 00:23:00,
2013-06-27 20:33:00,73.9,68.4,29.63,ESE,112,9.0,17.0,83,0.00,,,-99.99,WeatherLink 5.7,2013-06-28 00:33:00,
2013-06-27 20:43:00,73.8,68.7,29.63,ESE,112,9.0,18.0,84,0.00,,,-99.99,WeatherLink 5.7,2013-06-28 00:43:00,
2013-06-27 20:54:00,74.0,69.2,29.63,ESE,112,7.0,16.0,85,0.01,,,-99.99,WeatherLink 5.7,2013-06-28 00:54:00,
2013-06-27 21:03:00,73.8,70.0,29.63,ESE,112,8.0,14.0,88,0.06,,,-99.99,WeatherLink 5.7,2013-06-28 01:03:00,
2013-06-27 21:13:00,73.4,70.6,29.62,SE,135,9.0,17.0,91,0.10,,,-99.99,WeatherLink 5.7,2013-06-28 01:13:00,
2013-06-27 21:23:00,73.1,71.0,29.61,ESE,112,9.0,16.0,93,0.15,,,-99.99,WeatherLink 5.7,2013-06-28 01:23:00,
2013-06-27 21:33:00,72.9,71.4,29.61,ESE,112,8.0,16.0,95,0.18,,,-99.99,WeatherLink 5.7,2013-06-28 01:33:00,
2013-06-27 21:43:00,72.9,71.7,29.60,ESE,112,7.0,13.0,96,0.22,,,-99.99,WeatherLink 5.7,2013-06-28 01:43:00,
2013-06-27 21:53:00,73.2,72.3,29.59,ESE,112,8.0,15.0,97,0.34,,,-99.99,WeatherLink 5.7,2013-06-28 01:53:00,
2013-06-27 22:03:00,73.5,72.6,29.59,SE,135,8.0,17.0,97,0.32,,,-99.99,WeatherLink 5.7,2013-06-28 02:03:00,
2013-06-27 22:13:00,73.7,72.8,29.59,South,180,7.0,18.0,97,0.28,,,-99.99,WeatherLink 5.7,2013-06-28 02:13:00,
2013-06-27 22:23:00,73.9,72.7,29.60,South,180,6.0,18.0,96,0.23,,,-99.99,WeatherLink 5.7,2013-06-28 02:23:00,
2013-06-27 22:33:00,74.0,72.5,29.59,South,180,4.0,16.0,95,0.20,,,-99.99,WeatherLink 5.7,2013-06-28 02:33:00,
2013-06-27 22:43:00,74.2,72.0,29.60,South,180,4.0,12.0,93,0.16,,,-99.99,WeatherLink 5.7,2013-06-28 02:43:00,
2013-06-27 22:53:00,74.3,71.8,29.60,SSW,202,4.0,13.0,92,0.03,,,-99.99,WeatherLink 5.7,2013-06-28 02:53:00,
2013-06-27 23:03:00,74.5,71.7,29.60,South,180,4.0,13.0,91,0.01,,,-99.99,WeatherLink 5.7,2013-06-28 03:03:00,
2013-06-27 23:13:00,74.5,71.7,29.60,SSW,202,4.0,11.0,91,0.03,,,-99.99,WeatherLink 5.7,2013-06-28 03:13:00,
2013-06-27 23:20:00,74.3,71.8,29.60,SSW,202,3.0,11.0,92,0.05,,,-99.99,WeatherLink 5.7,2013-06-28 03:20:00,
2013-06-27 23:33:00,74.2,71.7,29.59,SSW,202,4.0,11.0,92,0.06,,,-99.99,WeatherLink 5.7,2013-06-28 03:33:00,
2013-06-27 23:43:00,74.3,71.8,29.59,SW,225,5.0,18.0,92,0.06,,,-99.99,WeatherLink 5.7,2013-06-28 03:43:00,
2013-06-27 23:53:00,74.3,71.8,29.60,SW,225,5.0,16.0,92,0.06,,,-99.99,WeatherLink 5.7,2013-06-28 03:53:00,